Time;durP1;ratioP1;P1;durP2;ratioP2;P2;SDS_P1;SDS_P2;PMS_P1;PMS_P2;Temp;Humidity;BMP_temperature;BMP_pressure;BME280_temperature;BME280_humidity;BME280_pressure;Samples;Min_cycle;Max_cycle;Signal;HPM_P1;HPM_P2
2023/01/01 00:01:09;;;;;;;26.70;14.35;;;16.60;74.20;;;;;;5041614;28;20442;-76
2023/01/01 00:03:35;;;;;;;29.80;15.98;;;16.60;72.00;;;;;;5034878;28;20053;-74
2023/01/01 00:06:09;;;;;;;25.98;14.85;;;16.60;71.80;;;;;;5033656;28;20064;-76
2023/01/01 00:08:35;;;;;;;25.45;13.65;;;16.60;71.80;;;;;;5054213;28;20386;-76
2023/01/01 00:11:02;;;;;;;27.95;13.02;;;16.60;71.90;;;;;;5043208;28;20309;-75
2023/01/01 00:13:28;;;;;;;27.70;12.18;;;16.50;70.80;;;;;;5044972;28;20053;-77
2023/01/01 00:15:54;;;;;;;19.48;10.82;;;16.60;72.50;;;;;;5036098;28;20055;-77
2023/01/01 00:18:19;;;;;;;20.35;11.30;;;16.60;71.20;;;;;;5033176;28;20096;-76
2023/01/01 00:20:45;;;;;;;16.10;10.27;;;16.60;72.30;;;;;;5040279;28;20048;-76
2023/01/01 00:23:11;;;;;;;21.63;10.07;;;16.60;73.60;;;;;;5049078;28;20032;-75
2023/01/01 00:25:39;;;;;;;23.17;10.75;;;16.60;72.40;;;;;;5056242;28;20045;-77
2023/01/01 00:28:05;;;;;;;21.02;9.02;;;16.60;72.50;;;;;;5044272;28;20024;-77
2023/01/01 00:30:30;;;;;;;14.43;8.05;;;16.60;71.40;;;;;;5054519;28;20429;-76
2023/01/01 00:32:56;;;;;;;18.88;8.27;;;16.60;71.80;;;;;;5038860;28;20025;-76
2023/01/01 00:35:25;;;;;;;13.70;6.35;;;16.60;71.80;;;;;;5041083;28;20075;-76
2023/01/01 00:37:51;;;;;;;18.40;7.55;;;16.50;70.50;;;;;;5042285;28;20029;-78
2023/01/01 00:40:17;;;;;;;19.42;6.28;;;16.60;70.90;;;;;;5031302;28;20047;-77
2023/01/01 00:42:43;;;;;;;17.42;6.60;;;16.60;72.20;;;;;;5040338;28;20040;-77
2023/01/01 00:45:09;;;;;;;12.65;6.13;;;16.60;70.50;;;;;;5049545;28;20029;-77
2023/01/01 00:47:35;;;;;;;16.40;6.45;;;16.60;72.70;;;;;;5030611;28;20100;-76
2023/01/01 00:50:00;;;;;;;16.63;6.55;;;16.60;71.70;;;;;;5019118;28;20112;-76
2023/01/01 00:52:26;;;;;;;14.05;5.32;;;16.60;73.50;;;;;;5036928;28;20506;-77
2023/01/01 00:54:51;;;;;;;15.93;6.40;;;16.50;72.00;;;;;;5038611;28;20029;-76
2023/01/01 00:57:17;;;;;;;12.02;4.95;;;16.50;72.30;;;;;;5018511;28;20018;-75
2023/01/01 00:59:43;;;;;;;14.73;5.07;;;16.50;73.10;;;;;;5020828;28;20559;-76
2023/01/01 01:02:10;;;;;;;10.65;4.35;;;16.50;73.80;;;;;;5046491;28;20048;-76
2023/01/01 01:04:35;;;;;;;12.73;5.03;;;16.50;75.30;;;;;;5042165;28;20068;-76
2023/01/01 01:07:01;;;;;;;10.63;4.32;;;16.50;74.60;;;;;;5038539;28;20022;-77
2023/01/01 01:09:27;;;;;;;13.98;5.15;;;16.40;74.60;;;;;;5043273;28;20024;-76
2023/01/01 01:11:52;;;;;;;13.95;5.00;;;16.40;75.00;;;;;;5024334;28;20084;-76
2023/01/01 01:14:18;;;;;;;12.85;4.25;;;16.40;75.10;;;;;;5035995;28;20434;-78
2023/01/01 01:16:43;;;;;;;14.68;3.88;;;16.30;73.70;;;;;;5042205;28;20383;-75
2023/01/01 01:19:14;;;;;;;10.80;4.25;;;16.30;75.50;;;;;;5037411;28;20060;-74
2023/01/01 01:21:40;;;;;;;13.27;4.65;;;16.30;75.10;;;;;;5042076;28;20079;-77
2023/01/01 01:24:06;;;;;;;10.38;3.58;;;16.20;73.30;;;;;;5036720;28;20026;-74
2023/01/01 01:26:32;;;;;;;11.38;3.70;;;16.20;73.70;;;;;;5041510;28;20084;-76
2023/01/01 01:28:59;;;;;;;10.38;3.30;;;16.20;73.60;;;;;;5028832;28;20030;-76
2023/01/01 01:31:28;;;;;;;11.02;3.25;;;16.20;73.30;;;;;;5048636;28;20091;-75
2023/01/01 01:33:54;;;;;;;10.50;2.85;;;16.20;73.80;;;;;;5045003;28;20032;-76
2023/01/01 01:36:20;;;;;;;9.18;3.25;;;16.20;73.80;;;;;;5045412;28;20079;-76
2023/01/01 01:38:46;;;;;;;9.55;2.83;;;16.20;73.90;;;;;;5036639;28;20055;-75
2023/01/01 01:41:13;;;;;;;8.85;2.42;;;16.20;74.60;;;;;;5056931;28;20029;-76
2023/01/01 01:43:39;;;;;;;9.30;2.50;;;16.20;75.80;;;;;;5036125;28;20152;-75
2023/01/01 01:46:24;;;;;;;6.85;2.70;;;16.10;74.30;;;;;;5042185;28;20096;-75
2023/01/01 01:48:50;;;;;;;14.52;3.13;;;16.10;73.20;;;;;;5032891;28;20113;-75
2023/01/01 01:51:29;;;;;;;7.60;2.47;;;16.10;73.80;;;;;;5041879;28;20033;-75
2023/01/01 01:54:00;;;;;;;13.40;3.85;;;16.10;74.30;;;;;;5034426;28;20037;-75
2023/01/01 01:56:52;;;;;;;10.15;2.78;;;16.00;73.50;;;;;;5045347;28;20475;-75
2023/01/01 01:59:19;;;;;;;9.55;2.55;;;16.00;74.30;;;;;;5020485;28;20033;-75
2023/01/01 02:01:45;;;;;;;10.57;2.95;;;16.10;74.80;;;;;;5051704;28;20049;-75
2023/01/01 02:04:11;;;;;;;9.45;2.92;;;16.10;74.00;;;;;;5040964;28;20118;-75
2023/01/01 02:06:38;;;;;;;7.00;3.03;;;16.00;72.60;;;;;;5047853;28;20061;-76
2023/01/01 02:09:06;;;;;;;10.07;2.75;;;16.00;72.90;;;;;;5041808;28;20030;-75
2023/01/01 02:11:32;;;;;;;7.90;2.22;;;16.00;72.70;;;;;;5030077;28;20564;-76
2023/01/01 02:14:00;;;;;;;10.98;2.88;;;16.10;75.00;;;;;;5027748;28;20112;-75
2023/01/01 02:16:38;;;;;;;8.90;3.25;;;16.00;72.90;;;;;;5002991;28;20061;-75
2023/01/01 02:19:31;;;;;;;10.98;2.28;;;16.00;73.60;;;;;;5043768;28;20135;-74
2023/01/01 02:22:31;;;;;;;12.07;3.00;;;16.00;72.70;;;;;;5052566;28;20731;-75
2023/01/01 02:25:31;;;;;;;10.52;2.92;;;16.00;73.00;;;;;;5054828;28;20072;-77
2023/01/01 02:28:35;;;;;;;8.98;2.15;;;16.00;73.50;;;;;;5047851;28;20030;-77
2023/01/01 02:31:01;;;;;;;8.80;2.42;;;16.00;73.60;;;;;;4969069;28;20066;-76
2023/01/01 02:33:28;;;;;;;11.63;2.50;;;16.00;73.30;;;;;;5026709;28;20037;-75
2023/01/01 02:36:03;;;;;;;7.38;2.65;;;16.00;74.30;;;;;;5028899;28;20052;-76
2023/01/01 02:38:31;;;;;;;12.05;3.20;;;16.00;72.40;;;;;;5034191;28;20022;-77
2023/01/01 02:41:04;;;;;;;7.85;2.00;;;16.00;73.00;;;;;;5032882;28;20060;-76
2023/01/01 02:43:30;;;;;;;10.70;3.05;;;16.00;74.60;;;;;;5035229;28;20022;-76
2023/01/01 02:45:55;;;;;;;10.50;2.10;;;15.90;71.50;;;;;;5031216;28;20052;-77
2023/01/01 02:48:36;;;;;;;9.02;2.90;;;15.90;72.40;;;;;;5042683;28;20033;-76
2023/01/01 02:51:27;;;;;;;6.72;1.85;;;16.00;73.20;;;;;;5040893;28;20096;-76
2023/01/01 02:54:00;;;;;;;7.68;1.80;;;16.00;71.40;;;;;;5047126;28;20195;-75
2023/01/01 02:56:45;;;;;;;7.00;2.15;;;16.00;71.00;;;;;;5029349;28;20033;-75
2023/01/01 03:02:19;;;;;;;7.90;2.47;;;16.00;71.80;;;;;;5029034;28;20103;-75
2023/01/01 03:05:09;;;;;;;7.93;2.00;;;16.00;72.80;;;;;;5046188;28;20482;-75
2023/01/01 03:08:16;;;;;;;10.90;2.33;;;16.00;71.40;;;;;;5039979;28;20036;-75
2023/01/01 03:11:02;;;;;;;8.95;2.28;;;16.00;72.10;;;;;;5042883;28;20029;-74
2023/01/01 03:13:43;;;;;;;9.15;2.40;;;15.90;70.50;;;;;;5036188;28;20075;-76
2023/01/01 03:16:30;;;;;;;6.93;1.90;;;15.90;70.50;;;;;;5027873;28;20492;-77
2023/01/01 03:19:16;;;;;;;10.07;2.00;;;16.00;71.60;;;;;;5050325;28;20039;-76
2023/01/01 03:21:52;;;;;;;6.18;2.10;;;15.90;70.70;;;;;;5042128;28;20018;-76
2023/01/01 03:24:35;;;;;;;3.90;1.73;;;16.00;71.30;;;;;;5047979;28;20020;-76
2023/01/01 03:27:08;;;;;;;8.05;1.75;;;16.00;72.80;;;;;;5047567;28;20041;-76
2023/01/01 03:29:37;;;;;;;8.95;2.13;;;15.90;71.50;;;;;;5045371;28;20056;-76
2023/01/01 03:32:04;;;;;;;7.45;1.77;;;16.00;73.20;;;;;;5027277;28;20468;-75
2023/01/01 03:34:39;;;;;;;6.68;1.88;;;16.00;72.40;;;;;;5039799;28;20312;-75
2023/01/01 03:37:09;;;;;;;7.10;2.47;;;15.90;70.30;;;;;;5022283;28;20033;-76
2023/01/01 03:39:47;;;;;;;7.43;1.75;;;16.00;72.50;;;;;;5035317;28;20034;-77
2023/01/01 03:42:28;;;;;;;7.05;1.92;;;15.90;72.50;;;;;;5046952;28;20097;-76
2023/01/01 03:45:18;;;;;;;5.75;1.95;;;15.90;71.70;;;;;;5023809;28;20438;-77
2023/01/01 03:47:45;;;;;;;7.40;2.90;;;16.00;73.80;;;;;;5035033;28;20752;-76
2023/01/01 03:50:12;;;;;;;7.97;2.13;;;15.90;74.20;;;;;;5040111;28;20113;-75
2023/01/01 03:52:47;;;;;;;10.60;2.55;;;15.90;71.90;;;;;;5040731;28;20116;-75
2023/01/01 03:55:33;;;;;;;5.38;1.85;;;15.90;72.30;;;;;;5056340;28;20027;-75
2023/01/01 03:58:10;;;;;;;9.13;2.10;;;15.80;71.70;;;;;;5020667;28;20029;-75
2023/01/01 04:01:03;;;;;;;5.43;2.00;;;15.80;71.10;;;;;;5046231;28;20025;-76
2023/01/01 04:03:31;;;;;;;10.30;2.13;;;15.80;71.50;;;;;;5036530;28;20089;-76
2023/01/01 04:05:57;;;;;;;15.60;2.78;;;15.80;72.30;;;;;;5045740;28;20037;-77
2023/01/01 04:08:23;;;;;;;8.60;2.70;;;15.70;70.50;;;;;;5049070;28;20028;-77
2023/01/01 04:10:58;;;;;;;8.18;2.05;;;15.70;71.20;;;;;;5051509;28;20518;-76
2023/01/01 04:13:23;;;;;;;9.15;2.22;;;15.70;71.60;;;;;;5046159;28;20029;-76
2023/01/01 04:15:50;;;;;;;6.93;2.30;;;15.70;71.00;;;;;;5043885;28;20021;-77
2023/01/01 04:18:16;;;;;;;6.40;2.40;;;15.70;71.20;;;;;;5039916;28;20025;-76
2023/01/01 04:20:41;;;;;;;8.02;2.10;;;15.70;71.10;;;;;;5042572;28;20028;-77
2023/01/01 04:23:07;;;;;;;6.72;1.80;;;15.70;72.40;;;;;;5041731;28;20049;-76
2023/01/01 04:25:33;;;;;;;11.40;2.30;;;15.70;71.80;;;;;;5030161;28;20837;-77
2023/01/01 04:28:02;;;;;;;8.80;2.30;;;15.70;71.50;;;;;;5030801;28;20021;-77
2023/01/01 04:30:28;;;;;;;7.65;2.03;;;15.70;71.40;;;;;;5025778;28;20025;-77
2023/01/01 04:32:54;;;;;;;12.35;3.17;;;15.70;71.90;;;;;;5038920;28;20446;-76
2023/01/01 04:35:20;;;;;;;9.57;2.70;;;15.70;71.80;;;;;;5051798;28;20156;-75
2023/01/01 04:37:46;;;;;;;10.82;2.55;;;15.70;72.60;;;;;;5046469;28;20168;-75
2023/01/01 04:40:12;;;;;;;9.23;2.20;;;15.70;72.20;;;;;;5034183;28;20403;-75
2023/01/01 04:42:38;;;;;;;7.95;2.35;;;15.70;73.80;;;;;;5041194;28;20014;-76
2023/01/01 04:45:04;;;;;;;8.27;2.17;;;15.80;74.80;;;;;;5043795;28;20037;-75
2023/01/01 04:47:30;;;;;;;7.20;2.30;;;15.70;73.20;;;;;;5036077;28;20048;-77
2023/01/01 04:49:56;;;;;;;5.50;1.90;;;15.70;73.70;;;;;;5036618;28;20491;-77
2023/01/01 04:52:21;;;;;;;9.40;1.92;;;15.70;73.60;;;;;;5043629;28;21664;-77
2023/01/01 04:54:47;;;;;;;9.05;1.95;;;15.70;74.40;;;;;;5047768;28;20021;-76
2023/01/01 04:57:13;;;;;;;6.18;1.80;;;15.60;73.00;;;;;;5039583;28;20107;-76
2023/01/01 04:59:39;;;;;;;9.60;2.10;;;15.60;73.90;;;;;;5032484;28;20057;-76
2023/01/01 05:02:05;;;;;;;6.05;2.08;;;15.60;73.90;;;;;;5052757;28;20032;-76
2023/01/01 05:04:32;;;;;;;12.60;3.05;;;15.60;74.30;;;;;;5040033;28;20025;-75
2023/01/01 05:06:57;;;;;;;7.07;1.60;;;15.60;74.00;;;;;;5026130;28;20035;-76
2023/01/01 05:09:23;;;;;;;11.98;2.67;;;15.60;76.40;;;;;;5038440;28;20033;-74
2023/01/01 05:11:49;;;;;;;8.57;3.28;;;15.60;75.10;;;;;;5021306;28;20557;-75
2023/01/01 05:14:15;;;;;;;9.35;2.42;;;15.60;74.90;;;;;;5044959;28;20166;-75
2023/01/01 05:16:41;;;;;;;18.45;5.85;;;15.60;75.50;;;;;;5028433;28;20539;-76
2023/01/01 05:19:07;;;;;;;15.60;4.53;;;15.60;74.70;;;;;;5051586;28;20590;-77
2023/01/01 05:21:39;;;;;;;6.75;2.13;;;15.50;74.80;;;;;;5032917;28;20039;-77
2023/01/01 05:24:07;;;;;;;21.65;6.47;;;15.40;75.70;;;;;;5039380;28;20029;-76
2023/01/01 05:26:35;;;;;;;9.68;2.67;;;15.50;76.00;;;;;;5031604;28;20817;-75
2023/01/01 05:29:01;;;;;;;10.43;2.67;;;15.40;75.10;;;;;;5045178;28;20080;-76
2023/01/01 05:31:32;;;;;;;8.57;1.95;;;15.50;75.60;;;;;;5030516;28;20095;-76
2023/01/01 05:33:58;;;;;;;11.30;2.72;;;15.40;75.10;;;;;;5040933;28;20025;-77
2023/01/01 05:36:34;;;;;;;6.53;1.58;;;15.50;75.60;;;;;;5037788;28;20033;-75
2023/01/01 05:38:59;;;;;;;10.15;2.00;;;15.40;76.10;;;;;;5037977;28;20068;-75
2023/01/01 05:41:25;;;;;;;11.45;2.30;;;15.40;76.20;;;;;;5011725;28;20064;-76
2023/01/01 05:43:52;;;;;;;8.63;2.55;;;15.40;75.90;;;;;;5045122;28;20442;-76
2023/01/01 05:46:20;;;;;;;8.38;2.70;;;15.30;76.50;;;;;;5030091;28;20087;-75
2023/01/01 05:48:46;;;;;;;9.68;2.92;;;15.40;77.00;;;;;;5045950;28;20108;-75
2023/01/01 05:51:18;;;;;;;8.43;2.00;;;15.30;73.90;;;;;;5044784;28;20051;-76
2023/01/01 05:53:44;;;;;;;7.50;1.92;;;15.20;72.70;;;;;;5042346;28;20024;-74
2023/01/01 05:56:11;;;;;;;8.88;2.13;;;15.20;73.70;;;;;;5030841;28;20112;-76
2023/01/01 05:58:39;;;;;;;8.35;1.73;;;15.20;73.80;;;;;;5043771;28;20021;-75
2023/01/01 06:01:11;;;;;;;8.25;1.77;;;15.30;74.70;;;;;;5047041;28;20029;-75
2023/01/01 06:03:38;;;;;;;8.13;2.13;;;15.10;74.50;;;;;;5035898;28;20025;-76
2023/01/01 06:06:09;;;;;;;10.00;1.65;;;15.20;75.50;;;;;;5043309;28;20421;-76
2023/01/01 06:08:35;;;;;;;11.55;2.33;;;15.10;75.30;;;;;;5048421;28;20053;-76
2023/01/01 06:11:02;;;;;;;6.85;1.50;;;15.10;77.00;;;;;;5046810;28;20588;-76
2023/01/01 06:13:28;;;;;;;6.38;1.80;;;15.00;75.30;;;;;;5028147;28;20127;-77
2023/01/01 06:15:55;;;;;;;10.55;1.95;;;15.00;74.90;;;;;;5051234;28;20098;-75
2023/01/01 06:18:21;;;;;;;9.73;2.22;;;15.00;74.30;;;;;;5029335;28;20024;-77
2023/01/01 06:20:47;;;;;;;9.48;2.35;;;15.00;73.40;;;;;;5038283;28;20108;-76
2023/01/01 06:23:12;;;;;;;5.03;1.60;;;15.00;74.30;;;;;;5042955;28;20163;-75
2023/01/01 06:25:38;;;;;;;8.60;1.42;;;15.00;73.80;;;;;;5038549;28;20045;-76
2023/01/01 06:28:03;;;;;;;6.45;1.30;;;14.90;74.00;;;;;;5034010;28;20030;-75
2023/01/01 06:30:30;;;;;;;8.30;2.08;;;14.90;73.70;;;;;;5045076;28;20551;-77
2023/01/01 06:32:56;;;;;;;5.30;1.05;;;14.90;73.90;;;;;;5033788;28;20387;-77
2023/01/01 06:35:21;;;;;;;6.43;1.48;;;14.80;75.00;;;;;;5045502;28;20017;-76
2023/01/01 06:37:47;;;;;;;11.65;1.70;;;14.80;75.30;;;;;;5045150;28;20022;-76
2023/01/01 06:40:13;;;;;;;9.70;2.17;;;14.80;76.20;;;;;;5043031;28;20021;-75
2023/01/01 06:42:39;;;;;;;6.95;1.75;;;14.80;76.30;;;;;;5048192;28;20044;-76
2023/01/01 06:45:05;;;;;;;5.38;1.65;;;14.80;76.80;;;;;;5047940;28;20434;-75
2023/01/01 06:47:34;;;;;;;10.82;1.60;;;14.70;77.70;;;;;;5045001;28;20029;-76
2023/01/01 06:50:00;;;;;;;10.57;2.00;;;14.70;77.10;;;;;;5040253;28;20013;-76
2023/01/01 06:52:26;;;;;;;8.98;1.52;;;14.80;77.90;;;;;;5035465;28;20395;-76
2023/01/01 06:54:52;;;;;;;6.05;1.73;;;14.70;77.70;;;;;;5036857;28;20038;-76
2023/01/01 06:57:17;;;;;;;3.38;1.02;;;14.70;77.90;;;;;;5058443;28;20024;-76
2023/01/01 06:59:43;;;;;;;7.75;1.73;;;14.60;78.00;;;;;;5054176;28;20018;-76
2023/01/01 07:02:10;;;;;;;8.35;2.00;;;14.60;78.10;;;;;;5049157;28;20037;-75
2023/01/01 07:04:36;;;;;;;5.28;1.50;;;14.50;78.00;;;;;;5031603;28;20722;-76
2023/01/01 07:07:01;;;;;;;6.20;1.40;;;14.50;78.40;;;;;;5035079;28;20049;-76
2023/01/01 07:09:27;;;;;;;6.50;1.42;;;14.50;79.10;;;;;;5049391;28;20360;-77
2023/01/01 07:11:53;;;;;;;7.20;1.58;;;14.40;77.10;;;;;;5047850;28;20434;-78
2023/01/01 07:14:18;;;;;;;3.15;1.08;;;14.40;76.10;;;;;;5038284;28;20034;-77
2023/01/01 07:16:44;;;;;;;3.42;0.80;;;14.20;76.00;;;;;;5050526;28;20104;-75
2023/01/01 07:19:10;;;;;;;7.88;1.35;;;14.20;76.90;;;;;;5045600;28;20021;-75
2023/01/01 07:21:44;;;;;;;7.03;1.35;;;14.10;76.20;;;;;;5024217;28;20024;-76
2023/01/01 07:24:12;;;;;;;4.78;0.85;;;14.10;76.80;;;;;;5057404;28;20033;-76
2023/01/01 07:26:37;;;;;;;4.30;1.15;;;14.00;77.10;;;;;;5043771;28;20044;-76
2023/01/01 07:29:04;;;;;;;6.32;1.35;;;14.00;78.30;;;;;;5038133;28;20025;-74
2023/01/01 07:31:30;;;;;;;6.20;1.00;;;13.90;78.10;;;;;;5038109;28;20024;-74
2023/01/01 07:33:56;;;;;;;4.97;0.98;;;13.80;78.60;;;;;;5041579;28;20025;-76
2023/01/01 07:36:22;;;;;;;4.22;0.80;;;13.70;79.30;;;;;;5037594;28;20111;-76
2023/01/01 07:38:47;;;;;;;5.85;1.52;;;13.70;79.80;;;;;;5038643;28;20013;-76
2023/01/01 07:41:13;;;;;;;4.40;0.70;;;13.70;81.20;;;;;;5029418;28;20036;-74
2023/01/01 07:43:38;;;;;;;5.40;0.90;;;13.50;80.80;;;;;;5052484;28;20025;-75
2023/01/01 07:46:04;;;;;;;6.25;1.02;;;13.50;81.30;;;;;;5022413;28;20049;-74
2023/01/01 07:48:30;;;;;;;7.07;0.95;;;13.30;81.60;;;;;;5035447;28;20052;-74
2023/01/01 07:50:55;;;;;;;4.80;1.05;;;13.30;81.60;;;;;;5053489;28;20029;-75
2023/01/01 07:53:21;;;;;;;5.15;1.15;;;13.30;83.20;;;;;;5044710;28;20041;-74
2023/01/01 07:55:47;;;;;;;6.90;1.20;;;13.30;83.60;;;;;;5040877;28;20045;-74
2023/01/01 07:58:13;;;;;;;6.80;1.50;;;13.20;83.00;;;;;;5040618;28;20025;-75
2023/01/01 08:00:39;;;;;;;5.20;0.90;;;13.10;83.20;;;;;;5049199;28;20017;-75
2023/01/01 08:03:05;;;;;;;5.45;0.82;;;13.10;83.90;;;;;;5041219;28;20021;-76
2023/01/01 08:05:32;;;;;;;5.93;0.95;;;13.20;84.20;;;;;;5043746;28;20018;-75
2023/01/01 08:07:58;;;;;;;6.93;1.00;;;13.10;84.00;;;;;;5022462;28;20030;-74
2023/01/01 08:10:24;;;;;;;5.60;0.93;;;13.10;83.80;;;;;;5038725;28;21059;-76
2023/01/01 08:12:50;;;;;;;5.53;1.38;;;13.10;83.80;;;;;;5039536;28;20454;-73
2023/01/01 08:15:17;;;;;;;7.07;1.17;;;13.10;84.60;;;;;;5027606;28;20017;-74
2023/01/01 08:17:43;;;;;;;5.28;1.00;;;13.10;84.60;;;;;;5023157;28;20120;-74
2023/01/01 08:20:09;;;;;;;3.42;0.98;;;13.10;84.60;;;;;;5035610;28;20115;-74
2023/01/01 08:22:35;;;;;;;5.75;1.27;;;13.10;85.00;;;;;;5039684;28;20072;-76
2023/01/01 08:25:00;;;;;;;9.23;1.75;;;13.10;84.60;;;;;;5022204;28;20045;-75
2023/01/01 08:27:26;;;;;;;6.78;1.00;;;13.10;85.30;;;;;;4999448;28;20042;-75
2023/01/01 08:29:54;;;;;;;10.70;1.65;;;13.10;84.90;;;;;;4998137;28;20045;-75
2023/01/01 08:32:19;;;;;;;7.47;1.10;;;13.10;84.60;;;;;;4999672;28;20457;-76
2023/01/01 08:34:45;;;;;;;6.57;1.10;;;13.10;84.90;;;;;;5003593;28;20030;-73
2023/01/01 08:37:13;;;;;;;8.10;1.48;;;13.00;84.30;;;;;;4995647;28;20023;-75
2023/01/01 08:39:39;;;;;;;8.38;1.45;;;13.00;84.50;;;;;;5001644;28;20077;-75
2023/01/01 08:42:07;;;;;;;3.92;0.90;;;13.00;84.70;;;;;;4996320;28;20023;-75
2023/01/01 08:44:33;;;;;;;7.60;1.70;;;13.00;84.80;;;;;;5004399;28;20136;-75
2023/01/01 08:46:58;;;;;;;5.40;1.02;;;13.00;85.70;;;;;;4998506;28;20859;-75
2023/01/01 08:49:24;;;;;;;5.25;1.40;;;13.00;85.10;;;;;;5011622;28;20022;-75
2023/01/01 08:51:50;;;;;;;6.38;1.05;;;13.00;84.30;;;;;;5007657;28;20108;-74
2023/01/01 08:54:15;;;;;;;5.78;1.60;;;13.00;84.40;;;;;;5009760;28;20677;-74
2023/01/01 08:56:41;;;;;;;8.23;1.08;;;13.00;84.60;;;;;;5003221;28;20030;-74
2023/01/01 08:59:07;;;;;;;5.60;1.45;;;13.00;84.80;;;;;;4996244;28;20029;-75
2023/01/01 09:01:32;;;;;;;4.35;0.77;;;13.00;84.60;;;;;;5000283;28;20027;-75
2023/01/01 09:03:58;;;;;;;5.70;1.13;;;13.10;84.80;;;;;;4995066;28;20026;-75
2023/01/01 09:06:24;;;;;;;8.95;1.55;;;13.10;84.70;;;;;;5007451;28;20022;-74
2023/01/01 09:08:50;;;;;;;6.88;1.17;;;13.10;85.00;;;;;;4996970;28;20106;-76
2023/01/01 09:11:27;;;;;;;8.15;1.67;;;13.10;85.20;;;;;;4999482;28;20125;-75
2023/01/01 09:13:53;;;;;;;8.98;1.15;;;13.10;85.10;;;;;;4999097;28;20030;-76
2023/01/01 09:16:19;;;;;;;7.63;1.73;;;13.10;85.30;;;;;;5001940;28;20030;-76
2023/01/01 09:18:45;;;;;;;9.82;1.52;;;13.10;85.40;;;;;;4997117;28;20069;-77
2023/01/01 09:21:10;;;;;;;11.30;2.53;;;13.20;86.20;;;;;;5007049;28;20476;-76
2023/01/01 09:23:37;;;;;;;7.68;2.33;;;13.20;86.10;;;;;;4998504;28;20030;-76
2023/01/01 09:26:23;;;;;;;6.55;1.33;;;13.10;86.40;;;;;;5001927;28;20497;-78
2023/01/01 09:28:49;;;;;;;6.05;1.90;;;13.10;86.90;;;;;;5006549;28;20045;-74
2023/01/01 09:31:15;;;;;;;4.32;0.95;;;13.10;87.50;;;;;;5000398;28;20397;-76
2023/01/01 09:33:41;;;;;;;11.98;1.67;;;13.10;87.70;;;;;;5000012;28;20057;-75
2023/01/01 09:36:26;;;;;;;6.82;1.63;;;13.20;87.70;;;;;;5001374;28;20022;-76
2023/01/01 09:38:54;;;;;;;11.05;2.22;;;13.10;88.10;;;;;;5003303;28;20085;-76
2023/01/01 09:41:37;;;;;;;6.78;1.65;;;13.20;88.40;;;;;;4998475;28;20863;-76
2023/01/01 09:44:19;;;;;;;4.53;1.38;;;13.20;88.80;;;;;;5001701;28;20492;-76
2023/01/01 09:46:45;;;;;;;7.38;1.50;;;13.20;89.10;;;;;;5003813;28;20441;-75
2023/01/01 09:49:32;;;;;;;10.15;2.10;;;13.20;89.70;;;;;;4991166;28;20027;-75
2023/01/01 09:52:00;;;;;;;10.20;2.22;;;13.20;89.10;;;;;;5012195;28;20389;-73
2023/01/01 09:54:55;;;;;;;5.93;1.15;;;13.30;89.20;;;;;;5000212;28;20022;-74
2023/01/01 09:57:30;;;;;;;6.38;1.30;;;13.30;89.50;;;;;;5005461;28;20080;-76
2023/01/01 09:59:58;;;;;;;9.85;1.45;;;13.30;89.30;;;;;;5001674;28;20025;-75
2023/01/01 10:02:42;;;;;;;7.10;2.10;;;13.30;89.50;;;;;;4997440;28;20026;-74
2023/01/01 10:05:31;;;;;;;6.97;1.10;;;13.30;89.70;;;;;;4997805;28;20113;-76
2023/01/01 10:08:20;;;;;;;10.88;2.17;;;13.30;90.10;;;;;;5004165;28;20037;-75
2023/01/01 10:11:04;;;;;;;10.13;1.70;;;13.30;90.20;;;;;;5000368;28;20040;-75
2023/01/01 10:13:43;;;;;;;10.82;2.08;;;13.30;90.20;;;;;;5014203;28;20021;-75
2023/01/01 10:16:38;;;;;;;7.55;2.30;;;13.20;90.60;;;;;;4988992;28;20026;-74
2023/01/01 10:19:23;;;;;;;10.13;2.05;;;13.20;90.80;;;;;;5007984;28;20120;-74
2023/01/01 10:21:51;;;;;;;4.88;1.27;;;13.20;91.00;;;;;;5001429;28;20077;-75
2023/01/01 10:24:42;;;;;;;13.32;2.10;;;13.30;91.00;;;;;;5015897;28;20023;-75
2023/01/01 10:27:18;;;;;;;13.57;2.70;;;13.30;91.20;;;;;;4991464;28;20400;-76
2023/01/01 10:29:47;;;;;;;12.15;2.08;;;13.30;91.40;;;;;;5001361;28;20024;-75
2023/01/01 10:32:35;;;;;;;11.25;2.35;;;13.30;91.60;;;;;;4997437;28;20034;-74
2023/01/01 10:35:09;;;;;;;9.80;2.17;;;13.20;92.20;;;;;;4998071;28;20519;-75
2023/01/01 10:37:37;;;;;;;13.40;2.33;;;13.20;92.80;;;;;;5005703;28;20034;-75
2023/01/01 10:40:13;;;;;;;11.95;2.40;;;13.20;92.90;;;;;;5001410;28;20030;-75
2023/01/01 10:42:39;;;;;;;10.52;2.25;;;13.10;93.10;;;;;;4990720;28;20033;-75
2023/01/01 10:45:05;;;;;;;7.22;1.83;;;13.00;93.20;;;;;;5021748;28;20022;-75
2023/01/01 10:47:31;;;;;;;15.25;3.03;;;13.00;93.10;;;;;;5002271;28;20061;-73
2023/01/01 10:50:06;;;;;;;11.80;2.10;;;13.00;93.00;;;;;;5010307;28;20120;-75
2023/01/01 10:52:40;;;;;;;8.82;1.45;;;13.00;93.10;;;;;;5003243;28;20046;-74
2023/01/01 10:55:19;;;;;;;12.82;2.53;;;12.90;93.40;;;;;;5009627;28;20029;-73
2023/01/01 10:57:45;;;;;;;7.53;1.33;;;12.90;93.10;;;;;;4999355;28;20089;-74
2023/01/01 11:00:17;;;;;;;12.45;2.05;;;12.90;93.30;;;;;;5005388;28;20802;-76
2023/01/01 11:02:42;;;;;;;6.82;1.98;;;12.80;93.50;;;;;;4995444;28;20058;-75
2023/01/01 11:05:13;;;;;;;13.27;2.92;;;12.90;93.50;;;;;;5003275;28;20049;-74
2023/01/01 11:07:40;;;;;;;15.15;3.25;;;12.80;93.60;;;;;;5007774;28;20430;-74
2023/01/01 11:10:14;;;;;;;11.95;1.77;;;12.80;93.80;;;;;;5017045;28;20083;-75
2023/01/01 11:12:40;;;;;;;10.18;1.50;;;12.80;93.80;;;;;;4992215;28;20108;-75
2023/01/01 11:15:06;;;;;;;8.23;1.40;;;12.80;93.90;;;;;;5014259;28;20026;-75
2023/01/01 11:17:35;;;;;;;11.77;2.38;;;12.80;93.90;;;;;;5025014;28;20036;-74
2023/01/01 11:20:03;;;;;;;9.48;2.13;;;12.80;94.00;;;;;;5023690;28;20074;-74
2023/01/01 11:22:40;;;;;;;12.13;2.30;;;12.80;94.10;;;;;;5011150;28;20029;-74
2023/01/01 11:25:20;;;;;;;15.48;2.58;;;12.90;94.10;;;;;;5021412;28;20136;-75
2023/01/01 11:27:46;;;;;;;7.73;2.43;;;13.00;93.90;;;;;;5027614;28;20872;-74
2023/01/01 11:30:23;;;;;;;10.65;2.42;;;13.00;93.90;;;;;;5045948;28;20416;-74
2023/01/01 11:32:53;;;;;;;8.45;2.25;;;13.00;93.90;;;;;;5035679;28;20029;-72
2023/01/01 11:35:22;;;;;;;7.90;2.15;;;13.10;93.70;;;;;;5027168;28;20824;-73
2023/01/01 11:37:50;;;;;;;7.65;2.47;;;13.20;93.60;;;;;;5053268;28;20023;-73
2023/01/01 11:40:19;;;;;;;9.27;2.10;;;13.30;93.60;;;;;;5024266;28;20033;-73
2023/01/01 11:42:48;;;;;;;6.03;1.83;;;13.30;93.60;;;;;;5059625;28;20033;-74
2023/01/01 11:45:23;;;;;;;9.88;3.55;;;13.40;93.50;;;;;;5026041;28;20028;-73
2023/01/01 11:48:28;;;;;;;8.65;2.45;;;13.40;93.50;;;;;;5052296;28;20128;-73
2023/01/01 11:50:57;;;;;;;9.07;2.22;;;13.40;93.50;;;;;;5025717;28;20101;-73
2023/01/01 11:53:31;;;;;;;12.40;3.85;;;13.40;93.70;;;;;;5030904;28;20464;-73
2023/01/01 11:56:02;;;;;;;12.35;2.80;;;13.50;93.80;;;;;;5016363;28;20048;-74
2023/01/01 11:58:37;;;;;;;13.38;3.60;;;13.50;93.80;;;;;;5032632;28;20029;-73
2023/01/01 12:01:25;;;;;;;9.68;3.20;;;13.50;93.80;;;;;;5031224;28;20039;-74
2023/01/01 12:03:56;;;;;;;12.05;3.50;;;13.50;93.90;;;;;;5031412;28;20116;-74
2023/01/01 12:06:27;;;;;;;8.32;2.90;;;13.50;94.00;;;;;;5035300;28;20022;-73
2023/01/01 12:09:20;;;;;;;11.63;3.67;;;13.60;94.00;;;;;;5033428;28;20071;-73
2023/01/01 12:12:04;;;;;;;9.90;2.85;;;13.60;93.90;;;;;;5034871;28;20033;-73
2023/01/01 12:14:51;;;;;;;10.23;3.88;;;13.60;94.00;;;;;;5035551;28;20025;-74
2023/01/01 12:17:26;;;;;;;9.23;3.58;;;13.60;94.10;;;;;;5035590;28;20095;-74
2023/01/01 12:20:13;;;;;;;14.10;4.20;;;13.60;94.20;;;;;;5030967;28;20028;-74
2023/01/01 12:22:39;;;;;;;6.95;2.72;;;13.70;93.80;;;;;;5034381;28;20140;-74
2023/01/01 12:25:09;;;;;;;8.52;3.17;;;13.80;93.60;;;;;;5034037;28;20041;-73
2023/01/01 12:28:10;;;;;;;18.92;4.22;;;13.80;93.80;;;;;;5034184;28;20495;-74
2023/01/01 12:30:46;;;;;;;10.13;3.47;;;13.80;93.70;;;;;;5016794;28;20037;-75
2023/01/01 12:33:26;;;;;;;11.82;3.92;;;13.80;93.90;;;;;;5035284;28;20494;-74
2023/01/01 12:36:07;;;;;;;;;;;13.90;93.70;;;;;;5033231;28;20034;-74
2023/01/01 12:38:38;;;;;;;15.85;4.68;;;14.00;93.60;;;;;;5034647;28;19971;-74
2023/01/01 12:41:42;;;;;;;17.60;4.50;;;14.10;93.50;;;;;;5032407;28;20025;-74
2023/01/01 12:44:39;;;;;;;12.85;4.00;;;14.60;92.60;;;;;;5032302;28;20033;-74
2023/01/01 12:47:13;;;;;;;14.88;3.72;;;15.10;91.60;;;;;;5032156;28;20056;-75
2023/01/01 12:49:49;;;;;;;14.98;3.28;;;15.60;90.40;;;;;;5030216;28;20021;-75
2023/01/01 12:52:37;;;;;;;10.55;2.63;;;15.50;89.80;;;;;;5033342;28;20040;-73
2023/01/01 12:55:11;;;;;;;14.23;3.53;;;15.50;89.90;;;;;;5035293;28;20025;-74
2023/01/01 12:57:49;;;;;;;10.10;3.45;;;15.40;89.50;;;;;;5035398;28;20035;-73
2023/01/01 13:00:17;;;;;;;17.75;3.78;;;15.40;89.70;;;;;;5034172;28;20098;-74
2023/01/01 13:02:59;;;;;;;16.88;4.38;;;15.30;89.30;;;;;;5033978;28;20090;-74
2023/01/01 13:05:42;;;;;;;11.70;2.85;;;15.20;89.60;;;;;;5013909;28;20033;-74